Tuesday, December 18, 2018, 12:15 PM EST
Back to Local

KMGJ, Montgomery Orange Co Airport

Location: Montgomery, NY, United States Lat: 41.517
Local Time: 12:15 PM EST (17:15 GMT) Lon: -74.267
Time Zone: US/Eastern Elev: 354 ft

Show me the last for .
Show Decoded

2018-12-18 11:54 METAR KMGJ 181654Z AUTO 33015G24KT 10SM CLR M01/M11 A3003 RMK AO2 PK WND
                 31027/1613 SLP171 T10111111 =
2018-12-18 10:54 METAR KMGJ 181554Z AUTO 32018G25KT 10SM CLR M02/M11 A3003 RMK AO2 SLP172
                 T10171111 =
2018-12-18 09:54 METAR KMGJ 181454Z AUTO 33008G19KT 10SM FEW041 M02/M11 A3004 RMK AO2 SLP176
                 T10171111 53030 =
2018-12-18 08:54 METAR KMGJ 181354Z AUTO 33015G21KT 10SM SCT039 M02/M11 A3001 RMK AO2 PK WND
                 32026/1312 SLP165 T10221111 =
2018-12-18 07:54 METAR KMGJ 181254Z AUTO 34011G24KT 10SM OVC034 M03/M11 A2998 RMK AO2 PK WND
                 34031/1221 SLP156 T10281106 =
2018-12-18 06:54 METAR KMGJ 181154Z AUTO 33014G23KT 10SM OVC036 M03/M10 A2995 RMK AO2 PK WND
                 33036/1125 SLP146 70002 T10281100 10017 21028 51030 $ =
2018-12-18 05:54 METAR KMGJ 181054Z AUTO 33015G28KT 10SM OVC039 M02/M09 A2993 RMK AO2 PK WND
                 35028/1039 SLP139 T10221094 $ =
2018-12-18 04:54 METAR KMGJ 180954Z AUTO 34020G29KT 10SM OVC043 M01/M09 A2990 RMK AO2 PK WND
                 35031/0900 SLP127 T10111094 $ =
2018-12-18 03:54 METAR KMGJ 180854Z AUTO 32016G33KT 10SM FEW043 M01/M09 A2986 RMK AO2 PK WND
                 33033/0851 SLP115 T10111094 53036 $ =
2018-12-18 02:54 METAR KMGJ 180754Z AUTO 32017G30KT 10SM CLR M01/M09 A2981 RMK AO2 PK WND
                 30034/0657 SLP099 T10061089 $ =
2018-12-18 01:54 METAR KMGJ 180654Z AUTO 32024G35KT 10SM CLR 01/M08 A2978 RMK AO2 PK WND
                 31035/0651 SLP087 T00061083 $ =
2018-12-18 00:54 METAR KMGJ 180554Z AUTO 31015G29KT 10SM FEW038 01/M06 A2975 RMK AO2 PK WND
                 31029/0505 SLP078 60001 T00111061 10039 20011 53004 $ =
2018-12-17 23:54 METAR KMGJ 180454Z AUTO 32013G27KT 10SM BKN045 OVC055 02/M06 A2974 RMK AO2 PK
                 WND 30027/0451 SLP075 T00221056 400610000 $ =
2018-12-17 22:54 METAR KMGJ 180354Z AUTO 29013G20KT 10SM BKN046 OVC055 03/M04 A2974 RMK AO2
                 SLP075 T00281044 $ =
2018-12-17 21:54 METAR KMGJ 180254Z AUTO 28008G15KT 230V290 9SM BKN040 BKN055 OVC070 02/M02 A2974
                 RMK AO2 SNB06E17B41E52 SLP074 P0001 60001 T00221022 53002 $ =
2018-12-17 20:54 METAR KMGJ 180154Z AUTO 30010KT 10SM SCT036 BKN043 OVC050 03/M03 A2974 RMK AO2
                 SLP072 T00331033 $ =
2018-12-17 19:54 METAR KMGJ 180054Z AUTO 30011G17KT 10SM SCT042 BKN055 OVC070 03/M03 A2974 RMK
                 AO2 SLP074 T00331028 $ =
2018-12-17 18:54 METAR KMGJ 172354Z AUTO 30010G17KT 10SM BKN044 OVC055 04/M03 A2974 RMK AO2
                 SLP072 60000 T00391028 10056 20039 51020 $ =
2018-12-17 17:54 METAR KMGJ 172254Z AUTO 26009KT 10SM BKN043 OVC055 04/M03 A2972 RMK AO2 SLP066
                 T00391028 $ =
2018-12-17 16:54 METAR KMGJ 172154Z AUTO 31014KT 10SM FEW042 OVC055 04/M03 A2970 RMK AO2 SLP060
                 T00441028 $ =
2018-12-17 15:54 METAR KMGJ 172054Z AUTO 29008G25KT 10SM SCT041 BKN050 OVC060 04/M03 A2968 RMK
                 AO2 SLP052 60000 T00441028 53005 =
2018-12-17 14:54 METAR KMGJ 171954Z AUTO 31013G20KT 10SM OVC055 05/M03 A2966 RMK AO2 SLP048
                 T00501028 =
2018-12-17 13:54 METAR KMGJ 171854Z AUTO 29011KT 10SM FEW039 BKN050 05/M01 A2965 RMK AO2
                 RAB1758E19 SLP044 P0000 T00501011 =
2018-12-17 12:54 METAR KMGJ 171754Z AUTO 30009KT 10SM FEW031 OVC039 05/00 A2966 RMK AO2 RAE22
                 SLP046 P0001 60001 T00500000 10061 20000 56015 =
2018-12-17 12:25 METAR KMGJ 171725Z AUTO 28005KT 10SM SCT025 BKN037 OVC044 04/01 A2967 RMK AO2
                 RAE22 P0001 T00440006 =

Support USWX by starting your Amazon purchase here.